sensor_id;sensor_type;location;lat;lon;timestamp;P1;durP1;ratioP1;P2;durP2;ratioP2
52866;SDS011;38739;53.324;6.862;2022-08-14T00:00:11;8.15;;;7.35;;
52866;SDS011;38739;53.324;6.862;2022-08-14T00:02:39;8.40;;;7.10;;
52866;SDS011;38739;53.324;6.862;2022-08-14T00:05:09;8.80;;;7.28;;
52866;SDS011;38739;53.324;6.862;2022-08-14T00:07:37;9.75;;;7.13;;
52866;SDS011;38739;53.324;6.862;2022-08-14T00:10:03;8.43;;;7.22;;
52866;SDS011;38739;53.324;6.862;2022-08-14T00:12:31;8.90;;;7.80;;
52866;SDS011;38739;53.324;6.862;2022-08-14T00:15:00;11.13;;;7.80;;
52866;SDS011;38739;53.324;6.862;2022-08-14T00:17:28;12.73;;;8.20;;
52866;SDS011;38739;53.324;6.862;2022-08-14T00:19:54;9.15;;;8.23;;
52866;SDS011;38739;53.324;6.862;2022-08-14T00:22:20;11.65;;;7.93;;
52866;SDS011;38739;53.324;6.862;2022-08-14T00:24:46;13.00;;;7.88;;
52866;SDS011;38739;53.324;6.862;2022-08-14T00:27:12;9.10;;;7.80;;
52866;SDS011;38739;53.324;6.862;2022-08-14T00:29:37;11.40;;;8.02;;
52866;SDS011;38739;53.324;6.862;2022-08-14T00:32:03;8.50;;;7.60;;
52866;SDS011;38739;53.324;6.862;2022-08-14T00:34:29;9.68;;;8.07;;
52866;SDS011;38739;53.324;6.862;2022-08-14T00:36:55;9.13;;;8.23;;
52866;SDS011;38739;53.324;6.862;2022-08-14T00:39:20;10.25;;;8.20;;
52866;SDS011;38739;53.324;6.862;2022-08-14T00:41:47;9.10;;;7.75;;
52866;SDS011;38739;53.324;6.862;2022-08-14T00:44:14;9.68;;;8.00;;
52866;SDS011;38739;53.324;6.862;2022-08-14T00:46:40;11.50;;;8.52;;
52866;SDS011;38739;53.324;6.862;2022-08-14T00:49:07;9.30;;;8.05;;
52866;SDS011;38739;53.324;6.862;2022-08-14T00:51:33;11.13;;;8.20;;
52866;SDS011;38739;53.324;6.862;2022-08-14T00:54:00;11.45;;;7.95;;
52866;SDS011;38739;53.324;6.862;2022-08-14T00:56:27;9.75;;;8.75;;
52866;SDS011;38739;53.324;6.862;2022-08-14T00:58:53;10.93;;;9.00;;
52866;SDS011;38739;53.324;6.862;2022-08-14T01:01:20;9.43;;;8.40;;
52866;SDS011;38739;53.324;6.862;2022-08-14T01:03:46;9.85;;;8.63;;
52866;SDS011;38739;53.324;6.862;2022-08-14T01:06:12;10.48;;;8.60;;
52866;SDS011;38739;53.324;6.862;2022-08-14T01:08:42;12.55;;;8.50;;
52866;SDS011;38739;53.324;6.862;2022-08-14T01:11:09;9.77;;;8.73;;
52866;SDS011;38739;53.324;6.862;2022-08-14T01:13:40;11.23;;;8.73;;
52866;SDS011;38739;53.324;6.862;2022-08-14T01:16:09;9.93;;;8.82;;
52866;SDS011;38739;53.324;6.862;2022-08-14T01:18:37;10.18;;;9.18;;
52866;SDS011;38739;53.324;6.862;2022-08-14T01:21:32;13.27;;;9.80;;
52866;SDS011;38739;53.324;6.862;2022-08-14T01:24:03;14.25;;;9.68;;
52866;SDS011;38739;53.324;6.862;2022-08-14T01:26:31;11.65;;;9.05;;
52866;SDS011;38739;53.324;6.862;2022-08-14T01:28:58;12.82;;;8.52;;
52866;SDS011;38739;53.324;6.862;2022-08-14T01:31:25;12.20;;;9.55;;
52866;SDS011;38739;53.324;6.862;2022-08-14T01:33:57;10.27;;;9.15;;
52866;SDS011;38739;53.324;6.862;2022-08-14T01:36:24;9.98;;;9.07;;
52866;SDS011;38739;53.324;6.862;2022-08-14T01:38:52;10.38;;;9.30;;
52866;SDS011;38739;53.324;6.862;2022-08-14T01:41:23;9.55;;;8.52;;
52866;SDS011;38739;53.324;6.862;2022-08-14T01:46:16;9.85;;;8.85;;
52866;SDS011;38739;53.324;6.862;2022-08-14T01:48:45;11.07;;;9.90;;
52866;SDS011;38739;53.324;6.862;2022-08-14T01:51:12;10.10;;;9.02;;
52866;SDS011;38739;53.324;6.862;2022-08-14T01:53:44;11.68;;;9.40;;
52866;SDS011;38739;53.324;6.862;2022-08-14T01:56:15;11.40;;;9.10;;
52866;SDS011;38739;53.324;6.862;2022-08-14T01:58:45;11.02;;;9.52;;
52866;SDS011;38739;53.324;6.862;2022-08-14T02:01:16;11.27;;;9.95;;
52866;SDS011;38739;53.324;6.862;2022-08-14T02:03:45;11.88;;;9.77;;
52866;SDS011;38739;53.324;6.862;2022-08-14T02:06:12;11.05;;;9.95;;
52866;SDS011;38739;53.324;6.862;2022-08-14T02:08:39;10.85;;;9.68;;
52866;SDS011;38739;53.324;6.862;2022-08-14T02:11:06;12.70;;;10.05;;
52866;SDS011;38739;53.324;6.862;2022-08-14T02:13:47;11.15;;;9.73;;
52866;SDS011;38739;53.324;6.862;2022-08-14T02:16:16;11.05;;;9.60;;
52866;SDS011;38739;53.324;6.862;2022-08-14T02:18:44;13.60;;;9.65;;
52866;SDS011;38739;53.324;6.862;2022-08-14T02:21:10;13.32;;;9.90;;
52866;SDS011;38739;53.324;6.862;2022-08-14T02:23:42;11.50;;;10.30;;
52866;SDS011;38739;53.324;6.862;2022-08-14T02:26:14;14.32;;;9.60;;
52866;SDS011;38739;53.324;6.862;2022-08-14T02:28:41;13.15;;;9.73;;
52866;SDS011;38739;53.324;6.862;2022-08-14T02:31:07;11.07;;;9.85;;
52866;SDS011;38739;53.324;6.862;2022-08-14T02:33:33;11.43;;;9.38;;
52866;SDS011;38739;53.324;6.862;2022-08-14T02:36:02;11.68;;;10.35;;
52866;SDS011;38739;53.324;6.862;2022-08-14T02:38:29;14.48;;;10.05;;
52866;SDS011;38739;53.324;6.862;2022-08-14T02:40:55;11.18;;;10.00;;
52866;SDS011;38739;53.324;6.862;2022-08-14T02:43:22;13.30;;;10.00;;
52866;SDS011;38739;53.324;6.862;2022-08-14T02:45:48;14.50;;;10.10;;
52866;SDS011;38739;53.324;6.862;2022-08-14T02:48:13;13.07;;;10.02;;
52866;SDS011;38739;53.324;6.862;2022-08-14T02:50:40;11.25;;;10.07;;
52866;SDS011;38739;53.324;6.862;2022-08-14T02:53:07;12.43;;;9.35;;
52866;SDS011;38739;53.324;6.862;2022-08-14T02:55:34;11.07;;;9.23;;
52866;SDS011;38739;53.324;6.862;2022-08-14T02:57:59;10.05;;;9.05;;
52866;SDS011;38739;53.324;6.862;2022-08-14T03:00:26;13.02;;;9.93;;
52866;SDS011;38739;53.324;6.862;2022-08-14T03:02:52;11.73;;;9.82;;
52866;SDS011;38739;53.324;6.862;2022-08-14T03:05:18;12.82;;;10.32;;
52866;SDS011;38739;53.324;6.862;2022-08-14T03:07:44;11.63;;;10.10;;
52866;SDS011;38739;53.324;6.862;2022-08-14T03:10:10;11.25;;;10.05;;
52866;SDS011;38739;53.324;6.862;2022-08-14T03:12:36;13.80;;;10.20;;
52866;SDS011;38739;53.324;6.862;2022-08-14T03:15:03;12.55;;;9.90;;
52866;SDS011;38739;53.324;6.862;2022-08-14T03:17:37;12.07;;;10.20;;
52866;SDS011;38739;53.324;6.862;2022-08-14T03:20:04;12.07;;;10.25;;
52866;SDS011;38739;53.324;6.862;2022-08-14T03:22:31;12.02;;;10.60;;
52866;SDS011;38739;53.324;6.862;2022-08-14T03:24:58;11.82;;;10.63;;
52866;SDS011;38739;53.324;6.862;2022-08-14T03:27:26;11.95;;;10.73;;
52866;SDS011;38739;53.324;6.862;2022-08-14T03:29:55;13.38;;;11.55;;
52866;SDS011;38739;53.324;6.862;2022-08-14T03:32:21;12.30;;;11.00;;
52866;SDS011;38739;53.324;6.862;2022-08-14T03:34:48;12.82;;;11.52;;
52866;SDS011;38739;53.324;6.862;2022-08-14T03:37:14;13.02;;;11.70;;
52866;SDS011;38739;53.324;6.862;2022-08-14T03:39:40;16.20;;;11.20;;
52866;SDS011;38739;53.324;6.862;2022-08-14T03:42:06;14.10;;;12.13;;
52866;SDS011;38739;53.324;6.862;2022-08-14T03:44:32;13.38;;;11.15;;
52866;SDS011;38739;53.324;6.862;2022-08-14T03:46:58;13.90;;;11.05;;
52866;SDS011;38739;53.324;6.862;2022-08-14T03:49:24;12.85;;;10.10;;
52866;SDS011;38739;53.324;6.862;2022-08-14T03:51:49;12.35;;;11.15;;
52866;SDS011;38739;53.324;6.862;2022-08-14T03:54:15;11.75;;;10.55;;
52866;SDS011;38739;53.324;6.862;2022-08-14T03:56:41;14.18;;;11.32;;
52866;SDS011;38739;53.324;6.862;2022-08-14T03:59:09;14.32;;;11.00;;
52866;SDS011;38739;53.324;6.862;2022-08-14T04:01:37;11.20;;;10.10;;
52866;SDS011;38739;53.324;6.862;2022-08-14T04:04:05;12.10;;;10.43;;
52866;SDS011;38739;53.324;6.862;2022-08-14T04:06:32;13.55;;;10.60;;
52866;SDS011;38739;53.324;6.862;2022-08-14T04:09:00;12.70;;;10.23;;
52866;SDS011;38739;53.324;6.862;2022-08-14T04:11:26;13.02;;;10.63;;
52866;SDS011;38739;53.324;6.862;2022-08-14T04:13:52;11.40;;;10.20;;
52866;SDS011;38739;53.324;6.862;2022-08-14T04:16:19;16.35;;;10.15;;
52866;SDS011;38739;53.324;6.862;2022-08-14T04:18:52;12.32;;;10.13;;
52866;SDS011;38739;53.324;6.862;2022-08-14T04:21:21;11.15;;;10.02;;
52866;SDS011;38739;53.324;6.862;2022-08-14T04:23:53;11.27;;;9.75;;
52866;SDS011;38739;53.324;6.862;2022-08-14T04:26:22;14.77;;;9.77;;
52866;SDS011;38739;53.324;6.862;2022-08-14T04:28:49;11.88;;;9.43;;
52866;SDS011;38739;53.324;6.862;2022-08-14T04:31:18;13.88;;;9.85;;
52866;SDS011;38739;53.324;6.862;2022-08-14T04:33:45;15.05;;;10.38;;
52866;SDS011;38739;53.324;6.862;2022-08-14T04:36:12;12.35;;;10.02;;
52866;SDS011;38739;53.324;6.862;2022-08-14T04:38:37;13.77;;;9.73;;
52866;SDS011;38739;53.324;6.862;2022-08-14T04:41:22;11.55;;;10.35;;
52866;SDS011;38739;53.324;6.862;2022-08-14T04:44:16;11.55;;;10.07;;
52866;SDS011;38739;53.324;6.862;2022-08-14T04:46:42;13.70;;;10.35;;
52866;SDS011;38739;53.324;6.862;2022-08-14T04:49:28;12.98;;;10.38;;
52866;SDS011;38739;53.324;6.862;2022-08-14T04:51:54;12.68;;;10.02;;
52866;SDS011;38739;53.324;6.862;2022-08-14T04:54:20;11.38;;;9.65;;
52866;SDS011;38739;53.324;6.862;2022-08-14T04:56:46;10.82;;;9.73;;
52866;SDS011;38739;53.324;6.862;2022-08-14T04:59:12;12.48;;;9.93;;
52866;SDS011;38739;53.324;6.862;2022-08-14T05:01:39;11.43;;;10.23;;
52866;SDS011;38739;53.324;6.862;2022-08-14T05:04:09;12.10;;;10.80;;
52866;SDS011;38739;53.324;6.862;2022-08-14T05:06:36;14.00;;;10.32;;
52866;SDS011;38739;53.324;6.862;2022-08-14T05:09:03;12.23;;;10.20;;
52866;SDS011;38739;53.324;6.862;2022-08-14T05:11:29;12.02;;;10.20;;
52866;SDS011;38739;53.324;6.862;2022-08-14T05:13:58;11.60;;;10.05;;
52866;SDS011;38739;53.324;6.862;2022-08-14T05:16:25;14.20;;;9.82;;
52866;SDS011;38739;53.324;6.862;2022-08-14T05:18:55;12.82;;;9.27;;
52866;SDS011;38739;53.324;6.862;2022-08-14T05:21:21;11.32;;;10.00;;
52866;SDS011;38739;53.324;6.862;2022-08-14T05:23:48;14.13;;;10.45;;
52866;SDS011;38739;53.324;6.862;2022-08-14T05:26:16;12.27;;;10.88;;
52866;SDS011;38739;53.324;6.862;2022-08-14T05:28:42;13.43;;;9.95;;
52866;SDS011;38739;53.324;6.862;2022-08-14T05:31:11;13.10;;;9.80;;
52866;SDS011;38739;53.324;6.862;2022-08-14T05:33:38;12.52;;;10.50;;
52866;SDS011;38739;53.324;6.862;2022-08-14T05:36:05;11.35;;;9.80;;
52866;SDS011;38739;53.324;6.862;2022-08-14T05:38:34;12.63;;;9.05;;
52866;SDS011;38739;53.324;6.862;2022-08-14T05:41:03;10.32;;;9.27;;
52866;SDS011;38739;53.324;6.862;2022-08-14T05:43:37;9.90;;;8.65;;
52866;SDS011;38739;53.324;6.862;2022-08-14T05:46:05;11.52;;;9.18;;
52866;SDS011;38739;53.324;6.862;2022-08-14T05:48:32;10.02;;;9.00;;
52866;SDS011;38739;53.324;6.862;2022-08-14T05:50:58;10.30;;;8.45;;
52866;SDS011;38739;53.324;6.862;2022-08-14T05:53:24;10.38;;;9.15;;
52866;SDS011;38739;53.324;6.862;2022-08-14T05:55:51;11.52;;;8.73;;
52866;SDS011;38739;53.324;6.862;2022-08-14T05:58:17;13.50;;;9.13;;
52866;SDS011;38739;53.324;6.862;2022-08-14T06:00:44;10.68;;;8.80;;
52866;SDS011;38739;53.324;6.862;2022-08-14T06:03:14;11.00;;;8.40;;
52866;SDS011;38739;53.324;6.862;2022-08-14T06:05:42;12.02;;;8.68;;
52866;SDS011;38739;53.324;6.862;2022-08-14T06:08:16;10.05;;;9.15;;
52866;SDS011;38739;53.324;6.862;2022-08-14T06:10:46;9.82;;;8.80;;
52866;SDS011;38739;53.324;6.862;2022-08-14T06:13:13;11.18;;;8.95;;
52866;SDS011;38739;53.324;6.862;2022-08-14T06:15:39;9.95;;;8.95;;
52866;SDS011;38739;53.324;6.862;2022-08-14T06:18:05;10.50;;;9.38;;
52866;SDS011;38739;53.324;6.862;2022-08-14T06:20:32;11.25;;;8.70;;
52866;SDS011;38739;53.324;6.862;2022-08-14T06:22:57;12.55;;;9.02;;
52866;SDS011;38739;53.324;6.862;2022-08-14T06:25:23;13.68;;;9.20;;
52866;SDS011;38739;53.324;6.862;2022-08-14T06:27:49;10.07;;;9.07;;
52866;SDS011;38739;53.324;6.862;2022-08-14T06:30:19;10.55;;;9.25;;
52866;SDS011;38739;53.324;6.862;2022-08-14T06:32:47;11.65;;;10.02;;
52866;SDS011;38739;53.324;6.862;2022-08-14T06:35:14;10.68;;;9.60;;
52866;SDS011;38739;53.324;6.862;2022-08-14T06:40:22;11.40;;;9.60;;
52866;SDS011;38739;53.324;6.862;2022-08-14T06:42:49;11.50;;;9.30;;
52866;SDS011;38739;53.324;6.862;2022-08-14T06:45:16;9.65;;;8.63;;
52866;SDS011;38739;53.324;6.862;2022-08-14T06:47:42;12.38;;;8.63;;
52866;SDS011;38739;53.324;6.862;2022-08-14T06:50:10;15.77;;;8.85;;
52866;SDS011;38739;53.324;6.862;2022-08-14T06:52:38;10.13;;;8.95;;
52866;SDS011;38739;53.324;6.862;2022-08-14T06:55:07;9.88;;;8.32;;
52866;SDS011;38739;53.324;6.862;2022-08-14T06:57:41;12.25;;;8.27;;
52866;SDS011;38739;53.324;6.862;2022-08-14T07:00:11;9.35;;;8.15;;
52866;SDS011;38739;53.324;6.862;2022-08-14T07:02:40;9.40;;;8.32;;
52866;SDS011;38739;53.324;6.862;2022-08-14T07:05:25;8.68;;;7.22;;
52866;SDS011;38739;53.324;6.862;2022-08-14T07:08:11;8.82;;;8.02;;
52866;SDS011;38739;53.324;6.862;2022-08-14T07:10:38;10.98;;;8.32;;
52866;SDS011;38739;53.324;6.862;2022-08-14T07:13:05;10.90;;;8.05;;
52866;SDS011;38739;53.324;6.862;2022-08-14T07:15:31;9.60;;;8.60;;
52866;SDS011;38739;53.324;6.862;2022-08-14T07:17:57;10.88;;;8.07;;
52866;SDS011;38739;53.324;6.862;2022-08-14T07:20:23;12.10;;;8.55;;
52866;SDS011;38739;53.324;6.862;2022-08-14T07:22:52;10.90;;;7.82;;
52866;SDS011;38739;53.324;6.862;2022-08-14T07:25:22;9.32;;;8.07;;
52866;SDS011;38739;53.324;6.862;2022-08-14T07:27:49;8.20;;;7.35;;
52866;SDS011;38739;53.324;6.862;2022-08-14T07:30:15;11.18;;;7.70;;
52866;SDS011;38739;53.324;6.862;2022-08-14T07:32:41;8.93;;;7.20;;
52866;SDS011;38739;53.324;6.862;2022-08-14T07:35:07;9.07;;;7.57;;
52866;SDS011;38739;53.324;6.862;2022-08-14T07:37:33;8.50;;;7.70;;
52866;SDS011;38739;53.324;6.862;2022-08-14T07:39:59;9.90;;;8.13;;
52866;SDS011;38739;53.324;6.862;2022-08-14T07:42:26;9.13;;;8.20;;
52866;SDS011;38739;53.324;6.862;2022-08-14T07:44:53;7.68;;;6.88;;
52866;SDS011;38739;53.324;6.862;2022-08-14T07:47:18;10.25;;;7.35;;
52866;SDS011;38739;53.324;6.862;2022-08-14T07:49:53;10.43;;;8.02;;
52866;SDS011;38739;53.324;6.862;2022-08-14T07:52:25;9.05;;;7.20;;
52866;SDS011;38739;53.324;6.862;2022-08-14T07:54:51;8.65;;;7.22;;
52866;SDS011;38739;53.324;6.862;2022-08-14T07:57:18;8.63;;;7.45;;
52866;SDS011;38739;53.324;6.862;2022-08-14T07:59:44;8.05;;;6.93;;
52866;SDS011;38739;53.324;6.862;2022-08-14T08:02:12;10.50;;;7.47;;
52866;SDS011;38739;53.324;6.862;2022-08-14T08:04:40;9.50;;;7.20;;
52866;SDS011;38739;53.324;6.862;2022-08-14T08:07:11;8.05;;;7.25;;
52866;SDS011;38739;53.324;6.862;2022-08-14T08:09:40;7.70;;;7.00;;
52866;SDS011;38739;53.324;6.862;2022-08-14T08:12:12;9.02;;;6.88;;
52866;SDS011;38739;53.324;6.862;2022-08-14T08:14:41;7.40;;;6.60;;
52866;SDS011;38739;53.324;6.862;2022-08-14T08:17:10;8.32;;;7.20;;
52866;SDS011;38739;53.324;6.862;2022-08-14T08:19:36;8.48;;;7.05;;
52866;SDS011;38739;53.324;6.862;2022-08-14T08:22:03;7.93;;;6.78;;
52866;SDS011;38739;53.324;6.862;2022-08-14T08:24:29;7.72;;;6.90;;
52866;SDS011;38739;53.324;6.862;2022-08-14T08:26:55;7.70;;;6.93;;
52866;SDS011;38739;53.324;6.862;2022-08-14T08:29:22;7.03;;;6.30;;
52866;SDS011;38739;53.324;6.862;2022-08-14T08:31:48;8.88;;;6.82;;
52866;SDS011;38739;53.324;6.862;2022-08-14T08:34:15;9.30;;;6.10;;
52866;SDS011;38739;53.324;6.862;2022-08-14T08:36:42;8.38;;;6.63;;
52866;SDS011;38739;53.324;6.862;2022-08-14T08:39:08;7.47;;;6.78;;
52866;SDS011;38739;53.324;6.862;2022-08-14T08:41:41;8.70;;;6.40;;
52866;SDS011;38739;53.324;6.862;2022-08-14T08:44:10;7.55;;;6.03;;
52866;SDS011;38739;53.324;6.862;2022-08-14T08:46:36;7.00;;;6.28;;
52866;SDS011;38739;53.324;6.862;2022-08-14T08:49:02;6.82;;;5.90;;
52866;SDS011;38739;53.324;6.862;2022-08-14T08:51:29;8.75;;;6.55;;
52866;SDS011;38739;53.324;6.862;2022-08-14T09:01:49;7.13;;;6.10;;
52866;SDS011;38739;53.324;6.862;2022-08-14T09:04:18;6.57;;;5.88;;
52866;SDS011;38739;53.324;6.862;2022-08-14T09:06:45;6.65;;;6.05;;
52866;SDS011;38739;53.324;6.862;2022-08-14T09:09:25;7.50;;;5.70;;
52866;SDS011;38739;53.324;6.862;2022-08-14T09:11:52;7.00;;;6.13;;
52866;SDS011;38739;53.324;6.862;2022-08-14T09:14:23;6.47;;;5.80;;
52866;SDS011;38739;53.324;6.862;2022-08-14T09:16:49;6.90;;;6.00;;
52866;SDS011;38739;53.324;6.862;2022-08-14T09:19:16;8.13;;;5.75;;
52866;SDS011;38739;53.324;6.862;2022-08-14T09:21:42;7.20;;;6.50;;
52866;SDS011;38739;53.324;6.862;2022-08-14T09:24:10;8.85;;;6.85;;
52866;SDS011;38739;53.324;6.862;2022-08-14T09:26:36;6.63;;;6.03;;
52866;SDS011;38739;53.324;6.862;2022-08-14T09:29:05;6.85;;;6.07;;
52866;SDS011;38739;53.324;6.862;2022-08-14T09:31:32;6.78;;;5.80;;
52866;SDS011;38739;53.324;6.862;2022-08-14T09:34:07;6.60;;;6.00;;
52866;SDS011;38739;53.324;6.862;2022-08-14T09:39:51;7.10;;;6.40;;
52866;SDS011;38739;53.324;6.862;2022-08-14T09:42:34;7.97;;;6.07;;
52866;SDS011;38739;53.324;6.862;2022-08-14T09:45:13;6.55;;;5.82;;
52866;SDS011;38739;53.324;6.862;2022-08-14T09:47:44;6.65;;;5.60;;
52866;SDS011;38739;53.324;6.862;2022-08-14T09:52:48;7.65;;;6.30;;
52866;SDS011;38739;53.324;6.862;2022-08-14T09:55:17;6.07;;;5.47;;
52866;SDS011;38739;53.324;6.862;2022-08-14T09:57:44;8.73;;;5.45;;
52866;SDS011;38739;53.324;6.862;2022-08-14T10:00:11;7.38;;;5.55;;
52866;SDS011;38739;53.324;6.862;2022-08-14T10:02:38;9.02;;;5.90;;
52866;SDS011;38739;53.324;6.862;2022-08-14T10:05:14;6.50;;;5.95;;
52866;SDS011;38739;53.324;6.862;2022-08-14T10:07:51;8.45;;;6.32;;
52866;SDS011;38739;53.324;6.862;2022-08-14T10:10:34;7.20;;;5.82;;
52866;SDS011;38739;53.324;6.862;2022-08-14T10:13:05;7.13;;;5.38;;
52866;SDS011;38739;53.324;6.862;2022-08-14T10:15:35;6.10;;;5.50;;
52866;SDS011;38739;53.324;6.862;2022-08-14T10:18:12;7.47;;;5.60;;
52866;SDS011;38739;53.324;6.862;2022-08-14T10:21:00;6.68;;;6.05;;
52866;SDS011;38739;53.324;6.862;2022-08-14T10:23:26;5.90;;;5.40;;
52866;SDS011;38739;53.324;6.862;2022-08-14T10:26:04;6.50;;;5.90;;
52866;SDS011;38739;53.324;6.862;2022-08-14T10:28:39;7.93;;;5.65;;
52866;SDS011;38739;53.324;6.862;2022-08-14T10:33:56;7.72;;;5.60;;
52866;SDS011;38739;53.324;6.862;2022-08-14T10:36:31;6.40;;;5.35;;
52866;SDS011;38739;53.324;6.862;2022-08-14T10:39:02;6.80;;;6.00;;
52866;SDS011;38739;53.324;6.862;2022-08-14T10:41:35;6.28;;;5.68;;
52866;SDS011;38739;53.324;6.862;2022-08-14T10:44:04;10.02;;;5.82;;
52866;SDS011;38739;53.324;6.862;2022-08-14T10:46:42;6.38;;;5.85;;
52866;SDS011;38739;53.324;6.862;2022-08-14T10:49:31;6.00;;;5.50;;
52866;SDS011;38739;53.324;6.862;2022-08-14T10:54:35;7.63;;;5.77;;
52866;SDS011;38739;53.324;6.862;2022-08-14T10:59:54;7.38;;;5.85;;
52866;SDS011;38739;53.324;6.862;2022-08-14T11:04:57;6.90;;;5.55;;
52866;SDS011;38739;53.324;6.862;2022-08-14T11:07:41;6.13;;;5.50;;
52866;SDS011;38739;53.324;6.862;2022-08-14T11:10:18;7.75;;;5.55;;
52866;SDS011;38739;53.324;6.862;2022-08-14T11:12:45;7.65;;;5.80;;
52866;SDS011;38739;53.324;6.862;2022-08-14T11:15:13;6.07;;;5.30;;
52866;SDS011;38739;53.324;6.862;2022-08-14T11:17:46;6.45;;;5.45;;
52866;SDS011;38739;53.324;6.862;2022-08-14T11:20:14;5.88;;;5.25;;
52866;SDS011;38739;53.324;6.862;2022-08-14T11:22:41;6.72;;;4.97;;
52866;SDS011;38739;53.324;6.862;2022-08-14T11:25:13;6.32;;;5.43;;
52866;SDS011;38739;53.324;6.862;2022-08-14T11:27:40;7.10;;;5.55;;
52866;SDS011;38739;53.324;6.862;2022-08-14T11:30:09;7.65;;;5.25;;
52866;SDS011;38739;53.324;6.862;2022-08-14T11:32:41;6.60;;;5.40;;
52866;SDS011;38739;53.324;6.862;2022-08-14T11:35:12;5.45;;;5.00;;
52866;SDS011;38739;53.324;6.862;2022-08-14T11:37:50;6.22;;;5.30;;
52866;SDS011;38739;53.324;6.862;2022-08-14T11:40:24;6.28;;;5.25;;
52866;SDS011;38739;53.324;6.862;2022-08-14T11:42:51;7.10;;;5.10;;
52866;SDS011;38739;53.324;6.862;2022-08-14T11:45:21;6.70;;;5.22;;
52866;SDS011;38739;53.324;6.862;2022-08-14T11:47:49;5.65;;;5.10;;
52866;SDS011;38739;53.324;6.862;2022-08-14T11:50:21;6.00;;;5.50;;
52866;SDS011;38739;53.324;6.862;2022-08-14T11:52:57;5.72;;;5.20;;
52866;SDS011;38739;53.324;6.862;2022-08-14T11:55:26;8.07;;;5.22;;
52866;SDS011;38739;53.324;6.862;2022-08-14T11:58:03;5.93;;;5.00;;
52866;SDS011;38739;53.324;6.862;2022-08-14T12:00:43;6.22;;;5.40;;
52866;SDS011;38739;53.324;6.862;2022-08-14T12:03:14;5.57;;;5.07;;
52866;SDS011;38739;53.324;6.862;2022-08-14T12:05:40;8.73;;;6.00;;
52866;SDS011;38739;53.324;6.862;2022-08-14T12:08:07;5.47;;;4.97;;
52866;SDS011;38739;53.324;6.862;2022-08-14T12:10:38;5.88;;;5.28;;
52866;SDS011;38739;53.324;6.862;2022-08-14T12:13:09;6.38;;;4.82;;
52866;SDS011;38739;53.324;6.862;2022-08-14T12:15:36;5.72;;;5.20;;
52866;SDS011;38739;53.324;6.862;2022-08-14T12:18:02;6.25;;;5.28;;
52866;SDS011;38739;53.324;6.862;2022-08-14T12:20:29;8.48;;;5.43;;
52866;SDS011;38739;53.324;6.862;2022-08-14T12:22:57;5.55;;;5.00;;
52866;SDS011;38739;53.324;6.862;2022-08-14T12:25:24;6.22;;;5.38;;
52866;SDS011;38739;53.324;6.862;2022-08-14T12:27:51;7.47;;;5.13;;
52866;SDS011;38739;53.324;6.862;2022-08-14T12:30:30;5.85;;;5.35;;
52866;SDS011;38739;53.324;6.862;2022-08-14T12:32:57;5.93;;;4.78;;
52866;SDS011;38739;53.324;6.862;2022-08-14T12:35:40;5.60;;;4.72;;
52866;SDS011;38739;53.324;6.862;2022-08-14T12:38:07;6.28;;;5.35;;
52866;SDS011;38739;53.324;6.862;2022-08-14T12:40:44;6.15;;;5.55;;
52866;SDS011;38739;53.324;6.862;2022-08-14T12:43:12;8.68;;;6.05;;
52866;SDS011;38739;53.324;6.862;2022-08-14T12:45:39;7.07;;;5.80;;
52866;SDS011;38739;53.324;6.862;2022-08-14T12:48:13;6.20;;;5.60;;
52866;SDS011;38739;53.324;6.862;2022-08-14T12:50:40;7.43;;;5.55;;
52866;SDS011;38739;53.324;6.862;2022-08-14T12:53:06;6.55;;;5.80;;
52866;SDS011;38739;53.324;6.862;2022-08-14T12:55:34;7.38;;;5.18;;
52866;SDS011;38739;53.324;6.862;2022-08-14T12:58:04;6.88;;;5.30;;
52866;SDS011;38739;53.324;6.862;2022-08-14T13:00:35;6.18;;;5.15;;
52866;SDS011;38739;53.324;6.862;2022-08-14T13:03:21;6.78;;;5.18;;
52866;SDS011;38739;53.324;6.862;2022-08-14T13:05:49;6.00;;;5.15;;
52866;SDS011;38739;53.324;6.862;2022-08-14T13:08:15;5.72;;;5.00;;
52866;SDS011;38739;53.324;6.862;2022-08-14T13:10:41;6.30;;;5.70;;
52866;SDS011;38739;53.324;6.862;2022-08-14T13:13:07;6.07;;;5.47;;
52866;SDS011;38739;53.324;6.862;2022-08-14T13:15:34;6.63;;;5.93;;
52866;SDS011;38739;53.324;6.862;2022-08-14T13:18:02;7.03;;;5.70;;
52866;SDS011;38739;53.324;6.862;2022-08-14T13:20:29;6.75;;;6.15;;
52866;SDS011;38739;53.324;6.862;2022-08-14T13:22:55;7.50;;;5.80;;
52866;SDS011;38739;53.324;6.862;2022-08-14T13:25:25;8.05;;;5.70;;
52866;SDS011;38739;53.324;6.862;2022-08-14T13:27:53;7.60;;;5.97;;
52866;SDS011;38739;53.324;6.862;2022-08-14T13:30:22;7.75;;;5.57;;
52866;SDS011;38739;53.324;6.862;2022-08-14T13:32:49;8.85;;;6.15;;
52866;SDS011;38739;53.324;6.862;2022-08-14T13:35:17;9.45;;;5.60;;
52866;SDS011;38739;53.324;6.862;2022-08-14T13:37:44;6.47;;;5.72;;
52866;SDS011;38739;53.324;6.862;2022-08-14T13:40:14;7.97;;;5.50;;
52866;SDS011;38739;53.324;6.862;2022-08-14T13:42:43;6.07;;;5.50;;
52866;SDS011;38739;53.324;6.862;2022-08-14T13:45:11;6.10;;;5.50;;
52866;SDS011;38739;53.324;6.862;2022-08-14T13:47:39;6.03;;;5.38;;
52866;SDS011;38739;53.324;6.862;2022-08-14T13:50:07;6.25;;;5.70;;
52866;SDS011;38739;53.324;6.862;2022-08-14T13:52:43;6.90;;;5.95;;
52866;SDS011;38739;53.324;6.862;2022-08-14T13:55:18;6.88;;;5.60;;
52866;SDS011;38739;53.324;6.862;2022-08-14T13:57:48;6.65;;;5.93;;
52866;SDS011;38739;53.324;6.862;2022-08-14T14:00:15;6.47;;;5.75;;
52866;SDS011;38739;53.324;6.862;2022-08-14T14:02:42;8.77;;;5.55;;
52866;SDS011;38739;53.324;6.862;2022-08-14T14:05:09;8.63;;;5.97;;
52866;SDS011;38739;53.324;6.862;2022-08-14T14:07:38;7.88;;;5.53;;
52866;SDS011;38739;53.324;6.862;2022-08-14T14:10:18;5.78;;;5.18;;
52866;SDS011;38739;53.324;6.862;2022-08-14T14:12:46;6.63;;;5.35;;
52866;SDS011;38739;53.324;6.862;2022-08-14T14:15:14;6.25;;;5.50;;
52866;SDS011;38739;53.324;6.862;2022-08-14T14:17:42;5.80;;;5.30;;
52866;SDS011;38739;53.324;6.862;2022-08-14T14:20:10;6.30;;;5.70;;
52866;SDS011;38739;53.324;6.862;2022-08-14T14:22:40;9.35;;;5.70;;
52866;SDS011;38739;53.324;6.862;2022-08-14T14:25:07;8.52;;;5.65;;
52866;SDS011;38739;53.324;6.862;2022-08-14T14:27:34;6.00;;;5.43;;
52866;SDS011;38739;53.324;6.862;2022-08-14T14:30:04;6.28;;;5.68;;
52866;SDS011;38739;53.324;6.862;2022-08-14T14:32:31;7.95;;;5.72;;
52866;SDS011;38739;53.324;6.862;2022-08-14T14:35:00;6.30;;;5.47;;
52866;SDS011;38739;53.324;6.862;2022-08-14T14:37:27;6.03;;;5.43;;
52866;SDS011;38739;53.324;6.862;2022-08-14T14:39:54;7.80;;;5.57;;
52866;SDS011;38739;53.324;6.862;2022-08-14T14:42:23;6.63;;;5.20;;
52866;SDS011;38739;53.324;6.862;2022-08-14T14:44:51;8.45;;;5.60;;
52866;SDS011;38739;53.324;6.862;2022-08-14T14:47:25;6.88;;;5.60;;
52866;SDS011;38739;53.324;6.862;2022-08-14T14:49:53;6.10;;;5.50;;
52866;SDS011;38739;53.324;6.862;2022-08-14T14:52:20;6.72;;;5.38;;
52866;SDS011;38739;53.324;6.862;2022-08-14T14:54:47;7.95;;;5.82;;
52866;SDS011;38739;53.324;6.862;2022-08-14T14:57:13;6.70;;;5.97;;
52866;SDS011;38739;53.324;6.862;2022-08-14T14:59:41;6.22;;;5.47;;
52866;SDS011;38739;53.324;6.862;2022-08-14T15:02:07;6.50;;;5.82;;
52866;SDS011;38739;53.324;6.862;2022-08-14T15:04:41;6.55;;;5.70;;
52866;SDS011;38739;53.324;6.862;2022-08-14T15:07:07;6.30;;;5.70;;
52866;SDS011;38739;53.324;6.862;2022-08-14T15:09:33;6.32;;;5.70;;
52866;SDS011;38739;53.324;6.862;2022-08-14T15:11:59;5.97;;;5.45;;
52866;SDS011;38739;53.324;6.862;2022-08-14T15:14:26;6.22;;;5.35;;
52866;SDS011;38739;53.324;6.862;2022-08-14T15:16:52;6.38;;;5.72;;
52866;SDS011;38739;53.324;6.862;2022-08-14T15:19:17;8.50;;;4.93;;